createdAt,value
2018-08-16T00:00:09.204Z,20.93
2018-08-16T00:01:09.149Z,20.89
2018-08-16T00:02:09.129Z,20.87
2018-08-16T00:03:09.051Z,20.93
2018-08-16T00:04:09.014Z,20.89
2018-08-16T00:05:08.960Z,20.92
2018-08-16T00:06:08.915Z,20.92
2018-08-16T00:07:08.901Z,20.87
2018-08-16T00:08:08.817Z,20.90
2018-08-16T00:09:08.772Z,20.85
2018-08-16T00:10:08.741Z,20.87
2018-08-16T00:11:08.695Z,20.87
2018-08-16T00:12:08.666Z,20.89
2018-08-16T00:13:08.596Z,20.92
2018-08-16T00:14:08.557Z,20.92
2018-08-16T00:15:08.512Z,20.92
2018-08-16T00:16:08.468Z,20.87
2018-08-16T00:17:08.449Z,20.89
2018-08-16T00:18:08.398Z,20.84
2018-08-16T00:19:08.319Z,20.85
2018-08-16T00:20:08.292Z,20.85
2018-08-16T00:21:08.232Z,20.89
2018-08-16T00:22:08.215Z,20.87
2018-08-16T00:23:08.151Z,20.92
2018-08-16T00:24:08.088Z,20.84
2018-08-16T00:25:08.055Z,20.84
2018-08-16T00:26:08.038Z,20.87
2018-08-16T00:27:07.962Z,20.82
2018-08-16T00:28:07.962Z,20.75
2018-08-16T00:29:07.862Z,20.75
2018-08-16T00:30:07.816Z,20.80
2018-08-16T00:31:07.802Z,20.81
2018-08-16T00:32:07.738Z,20.71
2018-08-16T00:33:07.702Z,20.80
2018-08-16T00:34:07.629Z,20.80
2018-08-16T00:35:07.592Z,20.78
2018-08-16T00:36:07.549Z,20.80
2018-08-16T00:37:07.500Z,20.81
2018-08-16T00:38:07.510Z,20.80
2018-08-16T00:39:07.438Z,20.77
2018-08-16T00:40:07.362Z,20.81
2018-08-16T00:41:07.325Z,20.74
2018-08-16T00:42:07.272Z,20.84
2018-08-16T00:43:07.254Z,20.81
2018-08-16T00:44:07.208Z,20.74
2018-08-16T00:45:07.157Z,20.82
2018-08-16T00:46:07.091Z,20.77
2018-08-16T00:47:07.050Z,20.81
2018-08-16T00:48:07.020Z,20.81
2018-08-16T00:49:07.001Z,20.66
2018-08-16T00:50:06.904Z,20.67
2018-08-16T00:51:06.866Z,20.67
2018-08-16T00:52:06.823Z,20.66
2018-08-16T00:53:06.817Z,20.72
2018-08-16T00:54:06.790Z,20.63
2018-08-16T00:55:06.680Z,20.62
2018-08-16T00:56:06.639Z,20.69
2018-08-16T00:57:06.584Z,20.63
2018-08-16T00:58:06.564Z,20.69
2018-08-16T00:59:06.507Z,20.63
2018-08-16T01:00:06.459Z,20.65
2018-08-16T01:01:06.399Z,20.66
2018-08-16T01:02:06.361Z,20.67
2018-08-16T01:03:06.341Z,20.56
2018-08-16T01:04:06.265Z,20.55
2018-08-16T01:05:06.254Z,20.57
2018-08-16T01:06:06.178Z,20.57
2018-08-16T01:07:06.175Z,20.55
2018-08-16T01:08:06.138Z,20.55
2018-08-16T01:09:06.052Z,20.57
2018-08-16T01:10:05.984Z,20.60
2018-08-16T01:11:05.968Z,20.59
2018-08-16T01:12:05.893Z,20.60
2018-08-16T01:13:05.887Z,20.62
2018-08-16T01:14:05.811Z,20.57
2018-08-16T01:15:05.819Z,20.62
2018-08-16T01:16:05.721Z,20.52
2018-08-16T01:17:05.665Z,20.44
2018-08-16T01:18:05.715Z,20.44
2018-08-16T01:19:05.615Z,20.41
2018-08-16T01:20:05.596Z,20.41
2018-08-16T01:21:05.496Z,20.36
2018-08-16T01:22:05.446Z,20.36
2018-08-16T01:23:05.422Z,20.34
2018-08-16T01:24:05.366Z,20.37
2018-08-16T01:25:05.316Z,20.26
2018-08-16T01:26:05.260Z,20.25
2018-08-16T01:27:05.224Z,20.33
2018-08-16T01:28:05.192Z,20.21
2018-08-16T01:29:05.118Z,20.22
2018-08-16T01:30:05.077Z,20.24
2018-08-16T01:31:05.037Z,20.10
2018-08-16T01:32:04.989Z,20.17
2018-08-16T01:33:04.959Z,20.19
2018-08-16T01:34:04.896Z,20.15
2018-08-16T01:35:04.842Z,20.11
2018-08-16T01:36:04.797Z,20.17
2018-08-16T01:37:04.803Z,20.04
2018-08-16T01:38:04.748Z,20.14
2018-08-16T01:39:04.684Z,20.01
2018-08-16T01:40:04.641Z,19.99
2018-08-16T01:41:04.574Z,20.03
2018-08-16T01:42:04.530Z,19.96
2018-08-16T01:43:04.514Z,19.96
2018-08-16T01:44:04.468Z,19.88
2018-08-16T01:45:04.392Z,19.96
2018-08-16T01:46:04.346Z,19.96
2018-08-16T01:47:04.319Z,19.84
2018-08-16T01:48:04.319Z,19.86
2018-08-16T01:49:04.203Z,19.81
2018-08-16T01:50:04.225Z,19.84
2018-08-16T01:51:04.107Z,19.74
2018-08-16T01:52:04.063Z,19.74
2018-08-16T01:53:04.010Z,19.67
2018-08-16T01:54:04.012Z,19.69
2018-08-16T01:55:03.923Z,19.70
2018-08-16T01:56:03.926Z,19.67
2018-08-16T01:57:03.848Z,19.66
2018-08-16T01:58:03.787Z,19.62
2018-08-16T01:59:03.762Z,19.55
2018-08-16T02:00:03.690Z,19.52
2018-08-16T02:01:03.813Z,19.52
2018-08-16T02:02:03.597Z,19.59
2018-08-16T02:03:03.556Z,19.49
2018-08-16T02:04:03.554Z,19.49
2018-08-16T02:05:03.516Z,19.49
2018-08-16T02:06:03.422Z,19.48
2018-08-16T02:07:03.384Z,19.45
2018-08-16T02:08:03.315Z,19.37
2018-08-16T02:09:03.307Z,19.36
2018-08-16T02:10:03.229Z,19.41
2018-08-16T02:11:03.184Z,19.33
2018-08-16T02:12:03.132Z,19.30
2018-08-16T02:13:03.102Z,19.29
2018-08-16T02:14:03.064Z,19.27
2018-08-16T02:15:02.999Z,19.26
2018-08-16T02:16:02.998Z,19.30
2018-08-16T02:17:02.905Z,19.27
2018-08-16T02:18:02.855Z,19.22
2018-08-16T02:19:02.831Z,19.24
2018-08-16T02:20:03.224Z,19.24
2018-08-16T02:21:02.717Z,19.24
2018-08-16T02:22:02.672Z,19.27
2018-08-16T02:23:02.647Z,19.15
2018-08-16T02:24:02.619Z,19.15
2018-08-16T02:25:02.616Z,19.15
2018-08-16T02:26:02.489Z,19.09
2018-08-16T02:27:02.454Z,19.08
2018-08-16T02:28:02.386Z,19.04
2018-08-16T02:29:02.391Z,19.08
2018-08-16T02:30:02.301Z,19.05
2018-08-16T02:31:02.274Z,18.99
2018-08-16T02:32:02.205Z,19.04
2018-08-16T02:33:02.161Z,18.98
2018-08-16T02:34:02.139Z,18.98
2018-08-16T02:35:02.066Z,18.93
2018-08-16T02:36:02.016Z,18.89
2018-08-16T02:37:01.970Z,18.86
2018-08-16T02:38:01.924Z,18.83
2018-08-16T02:39:01.908Z,18.78
2018-08-16T02:40:01.830Z,18.74
2018-08-16T02:41:01.783Z,18.67
2018-08-16T02:42:01.743Z,18.77
2018-08-16T02:43:01.715Z,18.66
2018-08-16T02:44:01.695Z,18.74
2018-08-16T02:45:01.595Z,18.67
2018-08-16T02:46:01.548Z,18.67
2018-08-16T02:47:01.549Z,18.63
2018-08-16T02:48:01.457Z,18.58
2018-08-16T02:49:01.433Z,18.58
2018-08-16T02:50:01.372Z,18.56
2018-08-16T02:51:01.431Z,18.52
2018-08-16T02:52:01.269Z,18.43
2018-08-16T02:53:01.258Z,18.38
2018-08-16T02:54:01.207Z,18.34
2018-08-16T02:55:01.139Z,18.37
2018-08-16T02:56:01.106Z,18.34
2018-08-16T02:57:01.038Z,18.33
2018-08-16T02:58:00.983Z,18.28
2018-08-16T02:59:00.963Z,18.28
2018-08-16T03:00:00.898Z,18.30
2018-08-16T03:01:00.848Z,18.25
2018-08-16T03:02:00.844Z,18.20
2018-08-16T03:03:00.756Z,18.18
2018-08-16T03:04:00.727Z,18.16
2018-08-16T03:05:00.671Z,18.19
2018-08-16T03:06:00.622Z,18.18
2018-08-16T03:07:00.577Z,18.19
2018-08-16T03:08:00.513Z,18.23
2018-08-16T03:09:00.501Z,18.09
2018-08-16T03:10:00.425Z,18.16
2018-08-16T03:11:00.397Z,18.09
2018-08-16T03:12:00.330Z,18.09
2018-08-16T03:13:00.281Z,18.13
2018-08-16T03:14:00.275Z,18.04
2018-08-16T03:15:00.187Z,18.00
2018-08-16T03:16:00.162Z,18.03
2018-08-16T03:17:00.095Z,18.05
2018-08-16T03:18:00.048Z,18.01
2018-08-16T03:19:00.002Z,18.05
2018-08-16T03:20:00.003Z,18.00
2018-08-16T03:20:59.906Z,18.07
2018-08-16T03:21:59.859Z,18.05
2018-08-16T03:22:59.824Z,18.09
2018-08-16T03:23:59.773Z,18.03
2018-08-16T03:24:59.737Z,17.97
2018-08-16T03:25:59.666Z,17.89
2018-08-16T03:26:59.642Z,17.94
2018-08-16T03:27:59.574Z,17.83
2018-08-16T03:28:59.530Z,17.80
2018-08-16T03:29:59.504Z,17.85
2018-08-16T03:30:59.434Z,17.93
2018-08-16T03:31:59.387Z,17.86
2018-08-16T03:32:59.347Z,17.83
2018-08-16T03:33:59.295Z,17.91
2018-08-16T03:34:59.271Z,17.75
2018-08-16T03:35:59.200Z,17.73
2018-08-16T03:36:59.154Z,17.71
2018-08-16T03:37:59.104Z,17.75
2018-08-16T03:38:59.065Z,17.70
2018-08-16T03:39:59.069Z,17.70
2018-08-16T03:40:58.986Z,17.65
2018-08-16T03:41:58.914Z,17.63
2018-08-16T03:42:58.867Z,17.57
2018-08-16T03:43:58.817Z,17.57
2018-08-16T03:44:58.800Z,17.53
2018-08-16T03:45:58.725Z,17.51
2018-08-16T03:46:58.701Z,17.53
2018-08-16T03:47:58.635Z,17.54
2018-08-16T03:48:58.607Z,17.53
2018-08-16T03:49:58.558Z,17.54
2018-08-16T03:50:58.487Z,17.49
2018-08-16T03:51:58.441Z,17.53
2018-08-16T03:52:58.395Z,17.48
2018-08-16T03:53:58.352Z,17.56
2018-08-16T03:54:58.344Z,17.42
2018-08-16T03:55:58.257Z,17.51
2018-08-16T03:56:58.222Z,17.48
2018-08-16T03:57:58.169Z,17.45
2018-08-16T03:58:58.119Z,17.45
2018-08-16T03:59:58.088Z,17.44
2018-08-16T04:00:58.018Z,17.45
2018-08-16T04:01:57.969Z,17.51
2018-08-16T04:02:57.929Z,17.49
2018-08-16T04:03:57.890Z,17.45
2018-08-16T04:04:57.858Z,17.51
2018-08-16T04:05:57.780Z,17.49
2018-08-16T04:06:57.749Z,17.46
2018-08-16T04:07:57.711Z,17.48
2018-08-16T04:08:57.640Z,17.41
2018-08-16T04:09:57.624Z,17.46
2018-08-16T04:10:57.542Z,17.37
2018-08-16T04:11:57.493Z,17.33
2018-08-16T04:12:57.455Z,17.38
2018-08-16T04:13:57.430Z,17.35
2018-08-16T04:14:57.387Z,17.35
2018-08-16T04:15:57.312Z,17.30
2018-08-16T04:16:57.312Z,17.29
2018-08-16T04:17:57.215Z,17.31
2018-08-16T04:18:57.165Z,17.29
2018-08-16T04:19:57.171Z,17.24
2018-08-16T04:20:57.077Z,17.30
2018-08-16T04:21:57.016Z,17.35
2018-08-16T04:22:56.977Z,17.29
2018-08-16T04:23:56.926Z,17.33
2018-08-16T04:24:56.909Z,17.29
2018-08-16T04:25:56.826Z,17.20
2018-08-16T04:26:56.827Z,17.19
2018-08-16T04:27:56.769Z,17.22
2018-08-16T04:28:56.689Z,17.08
2018-08-16T04:29:56.682Z,17.14
2018-08-16T04:30:56.593Z,17.12
2018-08-16T04:31:56.552Z,17.16
2018-08-16T04:32:56.501Z,17.09
2018-08-16T04:33:56.456Z,17.05
2018-08-16T04:34:56.478Z,17.08
2018-08-16T04:35:56.411Z,17.02
2018-08-16T04:36:56.311Z,17.02
2018-08-16T04:37:56.263Z,17.01
2018-08-16T04:38:56.217Z,17.02
2018-08-16T04:39:56.284Z,17.04
2018-08-16T04:40:56.129Z,17.06
2018-08-16T04:41:56.229Z,17.04
2018-08-16T04:42:56.025Z,17.02
2018-08-16T04:43:55.983Z,17.05
2018-08-16T04:44:55.966Z,17.04
2018-08-16T04:45:55.889Z,17.02
2018-08-16T04:46:55.903Z,17.02
2018-08-16T04:47:55.801Z,17.08
2018-08-16T04:48:55.736Z,17.08
2018-08-16T04:49:55.690Z,17.11
2018-08-16T04:50:55.673Z,17.11
2018-08-16T04:51:55.591Z,17.09
2018-08-16T04:52:55.634Z,17.09
2018-08-16T04:53:55.501Z,17.06
2018-08-16T04:54:55.460Z,17.09
2018-08-16T04:55:55.551Z,17.08
2018-08-16T04:56:55.380Z,17.06
2018-08-16T04:57:55.338Z,17.05
2018-08-16T04:58:55.300Z,17.09
2018-08-16T04:59:55.219Z,17.12
2018-08-16T05:00:55.195Z,17.08
2018-08-16T05:01:55.124Z,17.16
2018-08-16T05:02:55.072Z,17.14
2018-08-16T05:03:55.028Z,17.14
2018-08-16T05:04:54.980Z,17.14
2018-08-16T05:05:55.166Z,17.17
2018-08-16T05:06:54.907Z,17.14
2018-08-16T05:07:54.833Z,17.12
2018-08-16T05:08:54.796Z,17.24
2018-08-16T05:09:54.755Z,17.17
2018-08-16T05:10:54.727Z,17.22
2018-08-16T05:11:54.644Z,17.29
2018-08-16T05:12:54.603Z,17.35
2018-08-16T05:13:54.559Z,17.29
2018-08-16T05:14:54.503Z,17.35
2018-08-16T05:15:54.502Z,17.38
2018-08-16T05:16:54.411Z,17.41
2018-08-16T05:17:54.371Z,17.44
2018-08-16T05:18:54.315Z,17.46
2018-08-16T05:19:54.274Z,17.45
2018-08-16T05:20:54.258Z,17.51
2018-08-16T05:21:54.190Z,17.49
2018-08-16T05:22:54.126Z,17.59
2018-08-16T05:23:54.124Z,17.59
2018-08-16T05:24:54.032Z,17.59
2018-08-16T05:25:54.007Z,17.71
2018-08-16T05:26:53.940Z,17.83
2018-08-16T05:27:53.932Z,17.85
2018-08-16T05:28:53.840Z,17.98
2018-08-16T05:29:53.791Z,18.00
2018-08-16T05:30:53.766Z,17.98
2018-08-16T05:31:53.700Z,18.09
2018-08-16T05:32:53.651Z,18.30
2018-08-16T05:33:53.612Z,18.37
2018-08-16T05:34:53.552Z,18.48
2018-08-16T05:35:53.537Z,18.58
2018-08-16T05:36:53.463Z,18.58
2018-08-16T05:37:53.417Z,18.66
2018-08-16T05:38:53.369Z,18.80
2018-08-16T05:39:53.317Z,18.95
2018-08-16T05:40:53.303Z,19.04
2018-08-16T05:41:53.227Z,19.05
2018-08-16T05:42:53.205Z,19.24
2018-08-16T05:43:53.148Z,19.33
2018-08-16T05:44:53.091Z,19.37
2018-08-16T05:45:53.080Z,19.34
2018-08-16T05:46:53.002Z,19.52
2018-08-16T05:47:52.948Z,19.62
2018-08-16T05:48:52.899Z,19.67
2018-08-16T05:49:52.850Z,19.79
2018-08-16T05:50:52.863Z,19.88
2018-08-16T05:51:52.774Z,19.86
2018-08-16T05:52:52.715Z,19.99
2018-08-16T05:53:52.666Z,20.06
2018-08-16T05:54:52.620Z,20.01
2018-08-16T05:55:52.618Z,20.24
2018-08-16T05:56:52.536Z,20.25
2018-08-16T05:57:52.497Z,20.25
2018-08-16T05:58:52.449Z,20.37
2018-08-16T05:59:52.386Z,20.44
2018-08-16T06:00:52.368Z,20.44
2018-08-16T06:01:52.305Z,20.62
2018-08-16T06:02:52.265Z,20.69
2018-08-16T06:03:52.212Z,20.65
2018-08-16T06:04:52.160Z,20.80
2018-08-16T06:05:52.167Z,20.80
2018-08-16T06:06:52.069Z,20.81
2018-08-16T06:07:52.026Z,20.74
2018-08-16T06:08:51.985Z,20.81
2018-08-16T06:09:51.937Z,20.80
2018-08-16T06:10:51.888Z,20.75
2018-08-16T06:11:51.866Z,20.85
2018-08-16T06:12:51.798Z,20.95
2018-08-16T06:13:51.747Z,20.97
2018-08-16T06:14:51.704Z,20.87
2018-08-16T06:15:51.654Z,20.78
2018-08-16T06:16:51.634Z,20.78
2018-08-16T06:17:51.562Z,20.78
2018-08-16T06:18:51.520Z,20.62
2018-08-16T06:19:51.473Z,20.62
2018-08-16T06:20:51.428Z,20.59
2018-08-16T06:21:51.412Z,20.71
2018-08-16T06:22:51.340Z,20.67
2018-08-16T06:23:51.300Z,20.69
2018-08-16T06:24:51.250Z,20.66
2018-08-16T06:25:51.197Z,20.84
2018-08-16T06:26:51.256Z,20.93
2018-08-16T06:27:51.108Z,21.06
2018-08-16T06:28:51.064Z,21.11
2018-08-16T06:29:51.018Z,21.24
2018-08-16T06:30:50.978Z,21.29
2018-08-16T06:31:50.956Z,21.29
2018-08-16T06:32:50.884Z,21.32
2018-08-16T06:33:50.837Z,21.32
2018-08-16T06:34:50.794Z,21.30
2018-08-16T06:35:50.756Z,21.24
2018-08-16T06:36:50.732Z,21.14
2018-08-16T06:37:50.664Z,21.12
2018-08-16T06:38:50.664Z,20.90
2018-08-16T06:39:50.567Z,20.72
2018-08-16T06:40:50.522Z,20.81
2018-08-16T06:41:50.507Z,20.99
2018-08-16T06:42:50.440Z,20.93
2018-08-16T06:43:50.389Z,20.97
2018-08-16T06:44:50.362Z,20.85
2018-08-16T06:45:50.298Z,20.96
2018-08-16T06:46:50.297Z,20.99
2018-08-16T06:47:50.207Z,20.90
2018-08-16T06:48:50.168Z,21.05
2018-08-16T06:49:50.144Z,21.06
2018-08-16T06:50:50.073Z,21.10
2018-08-16T06:51:50.070Z,20.92
2018-08-16T06:52:49.999Z,20.92
2018-08-16T06:53:49.944Z,21.03
2018-08-16T06:54:49.905Z,21.11
2018-08-16T06:55:49.847Z,21.33
2018-08-16T06:56:49.845Z,21.35
2018-08-16T06:57:49.764Z,21.37
2018-08-16T06:58:49.714Z,21.63
2018-08-16T06:59:49.666Z,21.55
2018-08-16T07:00:49.618Z,21.57
2018-08-16T07:01:49.568Z,21.59
2018-08-16T07:02:49.564Z,21.50
2018-08-16T07:03:49.483Z,21.59
2018-08-16T07:04:49.478Z,21.61
2018-08-16T07:05:49.397Z,21.69
2018-08-16T07:06:49.348Z,21.79
2018-08-16T07:07:49.335Z,21.88
2018-08-16T07:08:49.256Z,21.90
2018-08-16T07:09:49.216Z,22.14
2018-08-16T07:10:49.186Z,22.20
2018-08-16T07:11:49.122Z,22.23
2018-08-16T07:12:49.101Z,22.29
2018-08-16T07:13:49.060Z,22.45
2018-08-16T07:14:48.986Z,22.36
2018-08-16T07:15:48.946Z,22.43
2018-08-16T07:16:48.898Z,22.41
2018-08-16T07:17:48.885Z,22.40
2018-08-16T07:18:48.887Z,22.47
2018-08-16T07:19:48.764Z,22.50
2018-08-16T07:20:48.727Z,22.40
2018-08-16T07:21:48.681Z,22.48
2018-08-16T07:22:48.655Z,22.48
2018-08-16T07:23:48.593Z,22.58
2018-08-16T07:24:48.563Z,22.70
2018-08-16T07:25:48.499Z,22.66
2018-08-16T07:26:48.453Z,22.62
2018-08-16T07:27:48.465Z,22.47
2018-08-16T07:28:48.376Z,22.44
2018-08-16T07:29:48.349Z,22.47
2018-08-16T07:30:48.299Z,22.56
2018-08-16T07:31:48.242Z,22.47
2018-08-16T07:32:48.241Z,22.50
2018-08-16T07:33:48.158Z,22.56
2018-08-16T07:34:48.102Z,22.54
2018-08-16T07:35:48.059Z,22.54
2018-08-16T07:36:48.014Z,22.54
2018-08-16T07:37:48.026Z,22.59
2018-08-16T07:38:47.942Z,22.58
2018-08-16T07:39:47.892Z,22.45
2018-08-16T07:40:47.836Z,22.45
2018-08-16T07:41:47.804Z,22.47
2018-08-16T07:42:47.802Z,22.56
2018-08-16T07:43:47.711Z,22.60
2018-08-16T07:44:47.669Z,22.68
2018-08-16T07:45:47.759Z,22.70
2018-08-16T07:46:47.586Z,22.84
2018-08-16T07:47:47.565Z,22.87
2018-08-16T07:48:47.490Z,22.84
2018-08-16T07:49:47.450Z,22.90
2018-08-16T07:50:47.396Z,22.99
2018-08-16T07:51:47.379Z,23.03
2018-08-16T07:52:47.331Z,23.13
2018-08-16T07:53:47.264Z,23.25
2018-08-16T07:54:47.219Z,23.51
2018-08-16T07:55:47.174Z,23.48
2018-08-16T07:56:47.136Z,23.55
2018-08-16T07:57:47.129Z,23.61
2018-08-16T07:58:47.049Z,23.66
2018-08-16T07:59:47.004Z,23.71
2018-08-16T08:00:46.959Z,23.76
2018-08-16T08:01:46.915Z,23.81
2018-08-16T08:02:46.919Z,23.78
2018-08-16T08:03:46.830Z,23.52
2018-08-16T08:04:46.798Z,23.44
2018-08-16T08:05:46.743Z,23.21
2018-08-16T08:06:46.705Z,23.21
2018-08-16T08:07:46.690Z,23.06
2018-08-16T08:08:46.664Z,23.13
2018-08-16T08:09:46.675Z,23.00
2018-08-16T08:10:46.524Z,23.07
2018-08-16T08:11:46.486Z,23.09
2018-08-16T08:12:46.459Z,23.10
2018-08-16T08:13:46.390Z,23.14
2018-08-16T08:14:46.351Z,23.00
2018-08-16T08:15:46.303Z,23.07
2018-08-16T08:16:46.260Z,23.15
2018-08-16T08:17:46.239Z,23.17
2018-08-16T08:18:46.175Z,23.18
2018-08-16T08:19:46.126Z,23.14
2018-08-16T08:20:46.083Z,23.38
2018-08-16T08:21:46.043Z,23.36
2018-08-16T08:22:46.036Z,23.33
2018-08-16T08:23:45.956Z,23.27
2018-08-16T08:24:45.913Z,23.21
2018-08-16T08:25:45.899Z,23.34
2018-08-16T08:26:45.834Z,23.33
2018-08-16T08:27:45.790Z,23.40
2018-08-16T08:28:45.776Z,23.36
2018-08-16T08:29:45.693Z,23.43
2018-08-16T08:30:45.648Z,23.34
2018-08-16T08:31:45.667Z,23.34
2018-08-16T08:32:45.561Z,23.33
2018-08-16T08:33:45.541Z,23.47
2018-08-16T08:34:45.474Z,23.47
2018-08-16T08:35:45.430Z,23.51
2018-08-16T08:36:45.386Z,23.55
2018-08-16T08:37:45.342Z,23.59
2018-08-16T08:38:45.371Z,23.76
2018-08-16T08:39:45.260Z,23.80
2018-08-16T08:40:45.211Z,23.88
2018-08-16T08:41:45.169Z,24.17
2018-08-16T08:42:45.154Z,24.30
2018-08-16T08:43:45.136Z,24.18
2018-08-16T08:44:45.046Z,24.20
2018-08-16T08:45:45.007Z,24.25
2018-08-16T08:46:44.952Z,24.29
2018-08-16T08:47:44.910Z,24.39
2018-08-16T08:48:44.907Z,24.39
2018-08-16T08:49:44.821Z,24.25
2018-08-16T08:50:44.783Z,24.26
2018-08-16T08:51:44.739Z,24.23
2018-08-16T08:52:44.705Z,24.26
2018-08-16T08:53:44.742Z,24.21
2018-08-16T08:54:44.613Z,24.18
2018-08-16T08:55:44.579Z,24.21
2018-08-16T08:56:44.525Z,24.30
2018-08-16T08:57:44.487Z,24.28
2018-08-16T08:58:44.445Z,24.23
2018-08-16T08:59:44.423Z,24.25
2018-08-16T09:00:44.350Z,24.26
2018-08-16T09:01:44.313Z,24.40
2018-08-16T09:02:44.279Z,24.45
2018-08-16T09:03:44.224Z,24.57
2018-08-16T09:04:44.225Z,24.52
2018-08-16T09:05:44.145Z,24.51
2018-08-16T09:06:44.137Z,24.45
2018-08-16T09:07:44.045Z,24.54
2018-08-16T09:08:44.010Z,24.44
2018-08-16T09:09:43.991Z,24.43
2018-08-16T09:10:43.913Z,24.37
2018-08-16T09:11:43.885Z,24.36
2018-08-16T09:12:43.837Z,24.32
2018-08-16T09:13:43.899Z,24.32
2018-08-16T09:14:43.783Z,24.40
2018-08-16T09:15:43.703Z,24.47
2018-08-16T09:16:43.658Z,24.45
2018-08-16T09:17:43.617Z,24.65
2018-08-16T09:18:43.575Z,24.63
2018-08-16T09:19:43.569Z,24.70
2018-08-16T09:20:43.489Z,24.83
2018-08-16T09:21:43.477Z,24.95
2018-08-16T09:22:43.416Z,25.01
2018-08-16T09:23:43.357Z,24.95
2018-08-16T09:24:43.319Z,25.03
2018-08-16T09:25:43.299Z,24.83
2018-08-16T09:26:43.231Z,24.92
2018-08-16T09:27:43.184Z,25.04
2018-08-16T09:28:43.142Z,25.04
2018-08-16T09:29:43.104Z,25.18
2018-08-16T09:30:43.088Z,25.03
2018-08-16T09:31:43.094Z,24.93
2018-08-16T09:32:42.974Z,24.83
2018-08-16T09:33:42.949Z,24.76
2018-08-16T09:34:42.886Z,24.83
2018-08-16T09:35:42.868Z,24.88
2018-08-16T09:36:42.799Z,24.82
2018-08-16T09:37:42.759Z,24.89
2018-08-16T09:38:42.718Z,24.83
2018-08-16T09:39:42.758Z,24.83
2018-08-16T09:40:42.672Z,24.86
2018-08-16T09:41:42.588Z,24.81
2018-08-16T09:42:42.549Z,24.86
2018-08-16T09:43:42.506Z,24.83
2018-08-16T09:44:42.476Z,24.85
2018-08-16T09:45:42.435Z,24.85
2018-08-16T09:46:42.398Z,24.88
2018-08-16T09:47:42.339Z,24.92
2018-08-16T09:48:42.295Z,24.96
2018-08-16T09:49:42.258Z,25.00
2018-08-16T09:50:42.208Z,25.01
2018-08-16T09:51:42.255Z,25.04
2018-08-16T09:52:42.132Z,25.04
2018-08-16T09:53:42.076Z,25.15
2018-08-16T09:54:42.033Z,25.18
2018-08-16T09:55:42.003Z,25.25
2018-08-16T09:56:41.977Z,25.30
2018-08-16T09:57:41.913Z,25.28
2018-08-16T09:58:41.872Z,25.38
2018-08-16T09:59:41.826Z,25.44
2018-08-16T10:00:41.777Z,25.33
2018-08-16T10:01:41.767Z,25.38
2018-08-16T10:02:41.691Z,25.38
2018-08-16T10:03:41.651Z,25.30
2018-08-16T10:04:41.611Z,25.37
2018-08-16T10:05:41.564Z,25.30
2018-08-16T10:06:41.547Z,25.28
2018-08-16T10:07:41.485Z,25.30
2018-08-16T10:08:41.437Z,25.32
2018-08-16T10:09:41.402Z,25.37
2018-08-16T10:10:41.361Z,25.35
2018-08-16T10:11:41.351Z,25.37
2018-08-16T10:12:41.271Z,25.40
2018-08-16T10:13:41.275Z,25.47
2018-08-16T10:14:41.186Z,25.50
2018-08-16T10:15:41.140Z,25.53
2018-08-16T10:16:41.098Z,25.60
2018-08-16T10:17:41.083Z,25.65
2018-08-16T10:18:41.021Z,25.63
2018-08-16T10:19:40.973Z,25.63
2018-08-16T10:20:40.934Z,25.65
2018-08-16T10:21:40.938Z,25.73
2018-08-16T10:22:40.874Z,25.70
2018-08-16T10:23:40.805Z,25.66
2018-08-16T10:24:40.761Z,25.78
2018-08-16T10:25:40.719Z,25.75
2018-08-16T10:26:40.675Z,25.74
2018-08-16T10:27:40.662Z,25.74
2018-08-16T10:28:40.594Z,25.70
2018-08-16T10:29:40.551Z,25.67
2018-08-16T10:30:40.509Z,25.78
2018-08-16T10:31:40.463Z,25.82
2018-08-16T10:32:40.449Z,25.81
2018-08-16T10:33:40.380Z,25.85
2018-08-16T10:34:40.342Z,25.81
2018-08-16T10:35:40.295Z,25.90
2018-08-16T10:36:40.258Z,25.84
2018-08-16T10:37:40.240Z,25.88
2018-08-16T10:38:40.172Z,25.73
2018-08-16T10:39:40.127Z,25.88
2018-08-16T10:40:40.088Z,25.74
2018-08-16T10:41:40.046Z,25.75
2018-08-16T10:42:40.027Z,25.65
2018-08-16T10:43:39.959Z,25.66
2018-08-16T10:44:39.916Z,25.69
2018-08-16T10:45:39.876Z,25.62
2018-08-16T10:46:39.839Z,25.63
2018-08-16T10:47:39.827Z,25.73
2018-08-16T10:48:39.750Z,25.74
2018-08-16T10:49:39.708Z,25.74
2018-08-16T10:50:39.666Z,25.82
2018-08-16T10:51:39.622Z,25.95
2018-08-16T10:52:39.581Z,25.88
2018-08-16T10:53:39.563Z,25.95
2018-08-16T10:54:39.499Z,25.88
2018-08-16T10:55:39.454Z,25.90
2018-08-16T10:56:39.410Z,25.88
2018-08-16T10:57:39.368Z,26.04
2018-08-16T10:58:39.357Z,26.00
2018-08-16T10:59:39.291Z,26.06
2018-08-16T11:00:39.240Z,26.16
2018-08-16T11:01:39.202Z,26.12
2018-08-16T11:02:39.164Z,26.18
2018-08-16T11:03:39.140Z,26.23
2018-08-16T11:04:39.071Z,26.23
2018-08-16T11:05:39.029Z,26.25
2018-08-16T11:06:38.990Z,26.28
2018-08-16T11:07:39.043Z,26.25
2018-08-16T11:08:38.933Z,26.22
2018-08-16T11:09:38.865Z,26.30
2018-08-16T11:10:38.822Z,26.26
2018-08-16T11:11:38.782Z,26.31
2018-08-16T11:12:38.743Z,26.28
2018-08-16T11:13:38.718Z,26.35
2018-08-16T11:14:38.651Z,26.34
2018-08-16T11:15:38.611Z,26.28
2018-08-16T11:16:38.566Z,26.41
2018-08-16T11:17:38.525Z,26.37
2018-08-16T11:18:38.505Z,26.41
2018-08-16T11:19:38.442Z,26.43
2018-08-16T11:20:38.401Z,26.43
2018-08-16T11:21:38.358Z,26.40
2018-08-16T11:22:38.316Z,26.40
2018-08-16T11:23:38.313Z,26.50
2018-08-16T11:24:38.230Z,26.41
2018-08-16T11:25:38.192Z,26.40
2018-08-16T11:26:38.147Z,26.43
2018-08-16T11:27:38.106Z,26.53
2018-08-16T11:28:38.089Z,26.59
2018-08-16T11:29:38.021Z,26.63
2018-08-16T11:30:37.981Z,26.53
2018-08-16T11:31:37.938Z,26.53
2018-08-16T11:32:37.892Z,26.59
2018-08-16T11:33:37.877Z,26.56
2018-08-16T11:34:37.814Z,26.53
2018-08-16T11:35:37.770Z,26.57
2018-08-16T11:36:37.724Z,26.53
2018-08-16T11:37:37.704Z,26.49
2018-08-16T11:38:37.672Z,26.53
2018-08-16T11:39:37.603Z,26.65
2018-08-16T11:40:37.570Z,26.70
2018-08-16T11:41:37.516Z,26.80
2018-08-16T11:42:37.476Z,26.80
2018-08-16T11:43:37.455Z,26.89
2018-08-16T11:44:37.396Z,26.86
2018-08-16T11:45:37.351Z,26.95
2018-08-16T11:46:37.351Z,26.89
2018-08-16T11:47:37.265Z,26.85
2018-08-16T11:48:37.250Z,26.78
2018-08-16T11:49:37.194Z,26.77
2018-08-16T11:50:37.140Z,26.67
2018-08-16T11:51:37.099Z,26.67
2018-08-16T11:52:37.058Z,26.67
2018-08-16T11:53:37.047Z,26.70
2018-08-16T11:54:36.977Z,26.65
2018-08-16T11:55:36.931Z,26.65
2018-08-16T11:56:36.894Z,26.67
2018-08-16T11:57:36.848Z,26.82
2018-08-16T11:58:36.861Z,26.72
2018-08-16T11:59:36.765Z,26.86
2018-08-16T12:00:36.728Z,26.72
2018-08-16T12:01:36.686Z,26.80
2018-08-16T12:02:36.634Z,26.87
2018-08-16T12:03:36.593Z,26.92
2018-08-16T12:04:36.575Z,26.95
2018-08-16T12:05:36.512Z,26.93
2018-08-16T12:06:36.465Z,26.90
2018-08-16T12:07:36.427Z,26.93
2018-08-16T12:08:36.383Z,26.95
2018-08-16T12:09:36.368Z,26.99
2018-08-16T12:10:36.299Z,27.02
2018-08-16T12:11:36.256Z,27.04
2018-08-16T12:12:36.219Z,26.92
2018-08-16T12:13:36.186Z,27.00
2018-08-16T12:14:36.163Z,26.99
2018-08-16T12:15:36.089Z,27.05
2018-08-16T12:16:36.049Z,26.95
2018-08-16T12:17:36.008Z,27.00
2018-08-16T12:18:35.963Z,27.05
2018-08-16T12:19:35.948Z,27.08
2018-08-16T12:20:35.876Z,27.11
2018-08-16T12:21:35.841Z,27.15
2018-08-16T12:22:35.796Z,27.15
2018-08-16T12:23:35.753Z,27.30
2018-08-16T12:24:35.738Z,27.36
2018-08-16T12:25:35.671Z,27.45
2018-08-16T12:26:35.637Z,27.37
2018-08-16T12:27:35.584Z,27.39
2018-08-16T12:28:35.544Z,27.24
2018-08-16T12:29:35.528Z,27.24
2018-08-16T12:30:35.464Z,27.30
2018-08-16T12:31:35.419Z,27.34
2018-08-16T12:32:35.378Z,27.29
2018-08-16T12:33:35.338Z,27.29
2018-08-16T12:34:35.320Z,27.34
2018-08-16T12:35:35.250Z,27.39
2018-08-16T12:36:35.220Z,27.32
2018-08-16T12:37:35.216Z,27.37
2018-08-16T12:38:35.130Z,27.41
2018-08-16T12:39:35.115Z,27.52
2018-08-16T12:40:35.067Z,27.48
2018-08-16T12:41:34.999Z,27.41
2018-08-16T12:42:34.960Z,27.49
2018-08-16T12:43:34.921Z,27.60
2018-08-16T12:44:34.897Z,27.64
2018-08-16T12:45:34.853Z,27.60
2018-08-16T12:46:34.807Z,27.61
2018-08-16T12:47:34.769Z,27.61
2018-08-16T12:48:34.714Z,27.58
2018-08-16T12:49:34.696Z,27.62
2018-08-16T12:50:34.629Z,27.62
2018-08-16T12:51:34.581Z,27.67